createdAt,value
2019-01-08T00:01:35.967Z,65.10
2019-01-08T00:04:05.712Z,65.35
2019-01-08T00:06:34.983Z,65.03
2019-01-08T00:09:04.612Z,64.92
2019-01-08T00:11:34.363Z,64.95
2019-01-08T00:14:04.049Z,64.85
2019-01-08T00:16:33.541Z,65.07
2019-01-08T00:19:03.346Z,64.98
2019-01-08T00:21:33.147Z,64.97
2019-01-08T00:24:02.556Z,65.15
2019-01-08T00:26:32.204Z,65.07
2019-01-08T00:29:02.011Z,65.09
2019-01-08T00:31:31.343Z,65.26
2019-01-08T00:34:00.623Z,64.84
2019-01-08T00:36:30.206Z,65.00
2019-01-08T00:38:59.733Z,65.00
2019-01-08T00:41:29.418Z,64.95
2019-01-08T00:43:58.917Z,64.96
2019-01-08T00:46:28.207Z,65.01
2019-01-08T00:48:57.671Z,64.96
2019-01-08T00:51:27.236Z,64.59
2019-01-08T00:53:56.731Z,64.45
2019-01-08T00:56:26.383Z,64.36
2019-01-08T00:58:55.955Z,64.39
2019-01-08T01:01:25.407Z,64.34
2019-01-08T01:03:55.247Z,64.22
2019-01-08T01:06:24.691Z,64.79
2019-01-08T01:08:54.305Z,65.02
2019-01-08T01:11:24.044Z,65.44
2019-01-08T01:13:53.458Z,65.66
2019-01-08T01:16:22.883Z,65.66
2019-01-08T01:18:52.685Z,65.13
2019-01-08T01:21:22.138Z,65.39
2019-01-08T01:23:51.866Z,65.50
2019-01-08T01:26:21.396Z,65.37
2019-01-08T01:28:50.849Z,65.53
2019-01-08T01:31:20.445Z,65.46
2019-01-08T01:33:49.766Z,65.15
2019-01-08T01:36:19.149Z,65.27
2019-01-08T01:38:49.200Z,65.62
2019-01-08T01:41:18.576Z,65.84
2019-01-08T01:43:47.975Z,65.59
2019-01-08T01:46:17.308Z,65.44
2019-01-08T01:48:46.603Z,65.97
2019-01-08T01:51:16.118Z,65.70
2019-01-08T01:53:45.854Z,65.68
2019-01-08T01:56:15.245Z,65.78
2019-01-08T01:58:45.063Z,65.88
2019-01-08T02:01:14.740Z,65.92
2019-01-08T02:03:44.331Z,65.83
2019-01-08T02:06:13.807Z,65.63
2019-01-08T02:08:43.403Z,65.50
2019-01-08T02:11:12.748Z,65.71
2019-01-08T02:13:42.457Z,65.15
2019-01-08T02:16:12.202Z,65.34
2019-01-08T02:18:41.730Z,65.67
2019-01-08T02:21:12.156Z,65.68
2019-01-08T02:23:41.558Z,65.25
2019-01-08T02:26:11.284Z,65.07
2019-01-08T02:28:40.923Z,65.54
2019-01-08T02:31:10.405Z,65.43
2019-01-08T02:33:39.965Z,65.56
2019-01-08T02:36:09.449Z,65.94
2019-01-08T02:38:38.939Z,65.76
2019-01-08T02:41:08.666Z,65.68
2019-01-08T02:43:38.050Z,65.70
2019-01-08T02:46:07.907Z,65.43
2019-01-08T02:48:37.180Z,65.79
2019-01-08T02:51:06.692Z,64.18
2019-01-08T02:53:36.423Z,63.62
2019-01-08T02:56:05.789Z,63.91
2019-01-08T02:58:35.496Z,64.00
2019-01-08T03:01:05.098Z,64.54
2019-01-08T03:03:34.942Z,64.82
2019-01-08T03:06:04.735Z,64.32
2019-01-08T03:08:34.115Z,64.12
2019-01-08T03:11:03.663Z,63.75
2019-01-08T03:13:33.359Z,64.16
2019-01-08T03:16:03.161Z,64.49
2019-01-08T03:18:32.526Z,64.44
2019-01-08T03:21:02.286Z,64.43
2019-01-08T03:23:32.096Z,64.33
2019-01-08T03:26:01.816Z,64.86
2019-01-08T03:28:31.312Z,64.94
2019-01-08T03:31:01.029Z,64.86
2019-01-08T03:33:30.445Z,65.00
2019-01-08T03:36:00.055Z,64.53
2019-01-08T03:38:29.724Z,64.64
2019-01-08T03:40:59.252Z,64.63
2019-01-08T03:43:29.070Z,64.12
2019-01-08T03:45:58.869Z,64.42
2019-01-08T03:48:28.728Z,64.06
2019-01-08T03:50:58.155Z,64.51
2019-01-08T03:53:27.708Z,64.50
2019-01-08T03:55:57.254Z,64.60
2019-01-08T03:58:26.818Z,64.64
2019-01-08T04:00:56.247Z,65.12
2019-01-08T04:03:25.905Z,65.18
2019-01-08T04:05:55.555Z,64.27
2019-01-08T04:08:25.171Z,64.58
2019-01-08T04:10:54.667Z,64.88
2019-01-08T04:13:24.407Z,64.92
2019-01-08T04:15:53.858Z,65.08
2019-01-08T04:18:23.527Z,65.02
2019-01-08T04:20:53.404Z,65.12
2019-01-08T04:23:23.173Z,65.43
2019-01-08T04:25:52.919Z,65.69
2019-01-08T04:28:22.207Z,65.14
2019-01-08T04:30:51.608Z,64.97
2019-01-08T04:33:21.027Z,65.35
2019-01-08T04:35:50.796Z,64.98
2019-01-08T04:38:20.179Z,64.81
2019-01-08T04:40:49.475Z,64.24
2019-01-08T04:43:18.783Z,65.02
2019-01-08T04:45:49.616Z,65.50
2019-01-08T04:48:18.971Z,64.93
2019-01-08T04:50:48.339Z,64.75
2019-01-08T04:53:17.806Z,65.19
2019-01-08T04:55:47.178Z,65.09
2019-01-08T04:58:16.822Z,65.75
2019-01-08T05:00:46.546Z,65.63
2019-01-08T05:03:16.032Z,67.49
2019-01-08T05:05:45.535Z,68.53
2019-01-08T05:08:14.948Z,68.11
2019-01-08T05:10:44.229Z,67.43
2019-01-08T05:13:13.956Z,67.24
2019-01-08T05:15:43.530Z,66.44
2019-01-08T05:18:13.246Z,66.12
2019-01-08T05:20:42.641Z,65.91
2019-01-08T05:23:12.152Z,66.04
2019-01-08T05:25:41.801Z,67.08
2019-01-08T05:28:11.368Z,67.18
2019-01-08T05:30:40.905Z,66.65
2019-01-08T05:33:10.302Z,66.63
2019-01-08T05:35:39.916Z,66.41
2019-01-08T05:38:09.304Z,65.47
2019-01-08T05:40:38.893Z,65.90
2019-01-08T05:43:08.335Z,66.22
2019-01-08T05:45:37.962Z,66.71
2019-01-08T05:48:08.132Z,66.24
2019-01-08T05:50:37.734Z,66.50
2019-01-08T05:53:07.307Z,66.81
2019-01-08T05:55:36.885Z,66.57
2019-01-08T05:58:06.223Z,66.06
2019-01-08T06:00:36.000Z,65.92
2019-01-08T06:03:05.450Z,66.13
2019-01-08T06:05:35.099Z,66.30
2019-01-08T06:08:04.743Z,66.61
2019-01-08T06:10:34.308Z,66.58
2019-01-08T06:13:04.090Z,66.45
2019-01-08T06:15:33.763Z,66.11
2019-01-08T06:18:03.509Z,66.12
2019-01-08T06:20:33.278Z,69.93
2019-01-08T06:23:03.075Z,68.14
2019-01-08T06:25:32.705Z,67.11
2019-01-08T06:28:02.992Z,66.74
2019-01-08T06:30:33.478Z,66.42
2019-01-08T06:33:03.254Z,66.61
2019-01-08T06:35:32.792Z,66.67
2019-01-08T06:38:02.675Z,66.77
2019-01-08T06:40:32.284Z,66.84
2019-01-08T06:43:02.006Z,66.74
2019-01-08T06:45:31.665Z,66.62
2019-01-08T06:48:01.418Z,66.49
2019-01-08T06:50:31.059Z,65.95
2019-01-08T06:53:00.756Z,66.21
2019-01-08T06:55:30.455Z,66.14
2019-01-08T06:58:00.204Z,66.24
2019-01-08T07:00:33.531Z,66.33
2019-01-08T07:02:59.694Z,66.51
2019-01-08T07:05:29.510Z,66.21
2019-01-08T07:07:59.215Z,65.84
2019-01-08T07:10:28.814Z,65.71
2019-01-08T07:12:58.678Z,65.11
2019-01-08T07:15:28.469Z,65.05
2019-01-08T07:17:58.351Z,65.24
2019-01-08T07:20:28.157Z,65.36
2019-01-08T07:22:57.730Z,65.72
2019-01-08T07:25:27.388Z,65.20
2019-01-08T07:27:57.166Z,65.37
2019-01-08T07:30:26.884Z,65.38
2019-01-08T07:32:56.644Z,64.94
2019-01-08T07:35:26.394Z,64.52
2019-01-08T07:37:56.101Z,66.55
2019-01-08T07:40:25.654Z,65.24
2019-01-08T07:42:55.864Z,65.11
2019-01-08T07:45:25.533Z,64.62
2019-01-08T07:47:55.284Z,64.22
2019-01-08T07:50:25.254Z,64.91
2019-01-08T07:52:54.964Z,64.65
2019-01-08T07:55:24.523Z,64.43
2019-01-08T07:57:54.346Z,64.72
2019-01-08T08:00:24.128Z,67.35
2019-01-08T08:02:53.774Z,66.29
2019-01-08T08:05:23.240Z,65.49
2019-01-08T08:07:54.461Z,70.32
2019-01-08T08:10:22.674Z,66.22
2019-01-08T08:12:52.301Z,65.22
2019-01-08T08:15:21.990Z,64.69
2019-01-08T08:17:51.718Z,64.36
2019-01-08T08:20:21.571Z,64.02
2019-01-08T08:22:51.384Z,63.31
2019-01-08T08:25:21.035Z,63.13
2019-01-08T08:27:50.527Z,63.09
2019-01-08T08:30:20.172Z,62.64
2019-01-08T08:32:49.795Z,62.35
2019-01-08T08:35:19.668Z,61.89
2019-01-08T08:37:49.423Z,61.73
2019-01-08T08:40:18.999Z,61.62
2019-01-08T08:42:48.705Z,61.98
2019-01-08T08:45:18.450Z,61.88
2019-01-08T08:47:48.059Z,61.02
2019-01-08T08:50:17.538Z,61.04
2019-01-08T08:52:47.061Z,61.06
2019-01-08T08:55:16.566Z,59.74
2019-01-08T08:57:46.278Z,57.67
2019-01-08T09:00:16.166Z,56.38
2019-01-08T09:02:45.820Z,55.41
2019-01-08T09:05:15.538Z,54.41
2019-01-08T09:07:45.112Z,53.50
2019-01-08T09:10:14.935Z,53.36
2019-01-08T09:12:44.627Z,54.01
2019-01-08T09:15:15.876Z,53.77
2019-01-08T09:17:45.528Z,53.60
2019-01-08T09:20:15.100Z,55.15
2019-01-08T09:22:45.764Z,54.47
2019-01-08T09:25:17.313Z,53.66
2019-01-08T09:27:47.157Z,53.33
2019-01-08T09:30:16.866Z,52.17
2019-01-08T09:32:46.500Z,52.37
2019-01-08T09:35:16.144Z,52.38
2019-01-08T09:37:45.796Z,51.47
2019-01-08T09:40:15.472Z,50.13
2019-01-08T09:42:45.381Z,50.83
2019-01-08T09:45:14.823Z,51.92
2019-01-08T09:47:44.479Z,50.26
2019-01-08T09:50:14.239Z,49.41
2019-01-08T09:52:43.952Z,47.93
2019-01-08T09:55:13.451Z,47.27
2019-01-08T09:57:43.128Z,47.56
2019-01-08T10:00:12.806Z,47.67
2019-01-08T10:02:42.462Z,47.70
2019-01-08T10:05:12.359Z,48.68
2019-01-08T10:07:42.035Z,47.37
2019-01-08T10:10:11.875Z,47.21
2019-01-08T10:12:41.546Z,45.73
2019-01-08T10:15:11.412Z,45.38
2019-01-08T10:17:40.888Z,43.75
2019-01-08T10:20:10.373Z,43.79
2019-01-08T10:22:40.099Z,43.77
2019-01-08T10:25:09.614Z,44.01
2019-01-08T10:27:39.242Z,45.11
2019-01-08T10:30:11.446Z,45.73
2019-01-08T10:32:41.159Z,45.29
2019-01-08T10:35:10.725Z,44.91
2019-01-08T10:37:40.386Z,44.43
2019-01-08T10:40:10.099Z,45.19
2019-01-08T10:42:39.919Z,45.27
2019-01-08T10:45:09.295Z,44.89
2019-01-08T10:47:39.065Z,43.35
2019-01-08T10:50:08.724Z,43.69
2019-01-08T10:52:38.500Z,44.13
2019-01-08T10:55:08.010Z,43.39
2019-01-08T10:57:38.371Z,44.28
2019-01-08T11:00:08.758Z,43.80
2019-01-08T11:02:38.264Z,44.11
2019-01-08T11:05:07.676Z,44.65
2019-01-08T11:07:37.308Z,46.22
2019-01-08T11:10:07.150Z,45.44
2019-01-08T11:12:37.038Z,44.08
2019-01-08T11:15:07.263Z,44.80
2019-01-08T11:17:36.869Z,44.45
2019-01-08T11:20:06.728Z,44.50
2019-01-08T11:22:36.467Z,44.31
2019-01-08T11:25:05.972Z,43.96
2019-01-08T11:27:35.622Z,43.59
2019-01-08T11:30:05.645Z,42.82
2019-01-08T11:32:35.103Z,40.76
2019-01-08T11:35:04.667Z,39.47
2019-01-08T11:37:34.519Z,36.65
2019-01-08T11:40:04.118Z,36.42
2019-01-08T11:42:33.632Z,34.59
2019-01-08T11:45:03.388Z,34.14
2019-01-08T11:47:33.007Z,32.63
2019-01-08T11:50:02.716Z,31.12
2019-01-08T11:52:32.470Z,31.17
2019-01-08T11:55:02.229Z,31.94
2019-01-08T11:57:32.161Z,29.92
2019-01-08T12:00:01.998Z,27.25
2019-01-08T12:02:31.572Z,27.98
2019-01-08T12:05:01.282Z,27.86
2019-01-08T12:07:31.527Z,28.18
2019-01-08T12:10:03.221Z,25.79
2019-01-08T12:12:33.057Z,24.45
2019-01-08T12:15:02.970Z,23.94
2019-01-08T12:17:32.726Z,26.40
2019-01-08T12:20:02.619Z,23.97
2019-01-08T12:22:40.599Z,24.66
2019-01-08T12:25:02.942Z,24.52
2019-01-08T12:27:32.487Z,24.75
2019-01-08T12:30:02.185Z,22.67
2019-01-08T12:32:31.940Z,22.46
2019-01-08T12:35:01.525Z,21.94
2019-01-08T12:37:31.195Z,21.41
2019-01-08T12:40:01.045Z,21.62
2019-01-08T12:42:30.796Z,21.58
2019-01-08T12:45:00.636Z,22.09
2019-01-08T12:47:30.439Z,21.22
2019-01-08T12:50:00.349Z,21.44
2019-01-08T12:52:30.174Z,22.70
2019-01-08T12:55:01.152Z,22.31
2019-01-08T12:57:30.648Z,20.21
2019-01-08T13:00:00.309Z,20.67
2019-01-08T13:02:30.107Z,21.39
2019-01-08T13:05:00.199Z,22.58
2019-01-08T13:07:29.691Z,22.92
2019-01-08T13:09:59.413Z,21.79
2019-01-08T13:12:28.887Z,21.23
2019-01-08T13:14:58.446Z,22.29
2019-01-08T13:17:28.202Z,22.66
2019-01-08T13:19:57.834Z,23.32
2019-01-08T13:22:33.889Z,22.88
2019-01-08T13:25:03.820Z,22.24
2019-01-08T13:27:33.555Z,23.57
2019-01-08T13:30:03.279Z,25.24
2019-01-08T13:32:32.880Z,26.44
2019-01-08T13:35:02.577Z,29.32
2019-01-08T13:37:32.100Z,28.52
2019-01-08T13:40:02.022Z,29.98
2019-01-08T13:42:31.712Z,31.91
2019-01-08T13:45:01.335Z,34.65
2019-01-08T13:47:32.136Z,35.84
2019-01-08T13:50:01.645Z,36.35
2019-01-08T13:52:31.354Z,38.06
2019-01-08T13:55:01.338Z,39.15
2019-01-08T13:57:30.767Z,39.86
2019-01-08T14:00:01.367Z,39.95
2019-01-08T14:02:32.033Z,40.62
2019-01-08T14:05:01.036Z,39.06
2019-01-08T14:07:30.917Z,36.13
2019-01-08T14:10:00.459Z,35.54
2019-01-08T14:12:30.284Z,34.55
2019-01-08T14:15:00.029Z,33.41
2019-01-08T14:17:29.583Z,33.00
2019-01-08T14:19:59.331Z,32.35
2019-01-08T14:22:29.070Z,31.94
2019-01-08T14:24:58.801Z,31.72
2019-01-08T14:27:28.452Z,33.13
2019-01-08T14:29:58.225Z,35.54
2019-01-08T14:32:27.719Z,37.32
2019-01-08T14:34:57.694Z,38.19
2019-01-08T14:37:27.464Z,39.00
2019-01-08T14:39:57.033Z,39.58
2019-01-08T14:42:26.734Z,40.67
2019-01-08T14:44:56.392Z,41.00
2019-01-08T14:47:25.965Z,42.20
2019-01-08T14:49:55.713Z,41.74
2019-01-08T14:52:25.254Z,42.33
2019-01-08T14:54:54.848Z,42.21
2019-01-08T14:57:24.576Z,42.91
2019-01-08T14:59:54.359Z,43.80
2019-01-08T15:02:23.744Z,43.51
2019-01-08T15:04:53.329Z,43.95
2019-01-08T15:07:23.044Z,51.92
2019-01-08T15:09:52.822Z,52.07
2019-01-08T15:12:22.588Z,63.70
2019-01-08T15:14:52.446Z,52.86
2019-01-08T15:17:22.232Z,46.19
2019-01-08T15:19:51.775Z,70.85
2019-01-08T15:22:21.347Z,58.21
2019-01-08T15:24:51.255Z,57.35
2019-01-08T15:27:21.096Z,46.39
2019-01-08T15:29:50.944Z,46.93
2019-01-08T15:32:20.480Z,48.95
2019-01-08T15:34:50.448Z,42.59
2019-01-08T15:37:19.905Z,50.20
2019-01-08T15:39:49.920Z,59.14
2019-01-08T15:42:19.764Z,56.54
2019-01-08T15:44:49.310Z,55.28
2019-01-08T15:47:20.287Z,48.34
2019-01-08T15:49:49.885Z,37.84
2019-01-08T15:52:19.632Z,35.65
2019-01-08T15:54:49.185Z,33.10
2019-01-08T15:57:19.011Z,37.02
2019-01-08T15:59:48.394Z,36.99
2019-01-08T16:02:18.021Z,38.26
2019-01-08T16:04:47.467Z,39.95
2019-01-08T16:24:38.895Z,48.15
2019-01-08T16:27:09.155Z,48.50
2019-01-08T16:29:38.801Z,48.11
2019-01-08T16:32:08.556Z,49.00
2019-01-08T16:34:38.017Z,49.00
2019-01-08T16:37:07.756Z,49.42
2019-01-08T16:39:37.197Z,49.78
2019-01-08T16:42:06.823Z,49.98
2019-01-08T16:44:36.594Z,50.34
2019-01-08T16:47:06.241Z,50.59
2019-01-08T16:49:35.754Z,51.87
2019-01-08T16:52:07.251Z,51.12
2019-01-08T17:11:58.854Z,51.68
2019-01-08T17:31:50.287Z,50.88
2019-01-08T17:51:42.459Z,52.28
2019-01-08T17:54:12.231Z,51.41
2019-01-08T17:56:42.027Z,50.72
2019-01-08T18:19:27.742Z,52.84
2019-01-08T18:21:57.269Z,52.91
2019-01-08T18:24:27.043Z,52.61
2019-01-08T18:26:56.771Z,51.81
2019-01-08T18:29:26.495Z,52.83
2019-01-08T18:31:56.441Z,52.39
2019-01-08T18:34:26.081Z,52.34
2019-01-08T18:36:55.695Z,52.85
2019-01-08T18:39:25.442Z,53.07
2019-01-08T18:59:17.385Z,53.66
2019-01-08T19:01:46.948Z,53.81
2019-01-08T19:04:16.559Z,53.56
2019-01-08T19:06:46.200Z,54.35
2019-01-08T19:09:27.765Z,54.63
2019-01-08T19:11:57.620Z,53.80
2019-01-08T19:14:30.930Z,53.17
2019-01-08T19:17:00.683Z,53.25
2019-01-08T19:19:30.298Z,53.55
2019-01-08T19:21:59.971Z,53.11
2019-01-08T19:24:29.712Z,53.98
2019-01-08T19:26:59.312Z,53.61
2019-01-08T19:29:28.884Z,54.37
2019-01-08T19:31:58.555Z,53.90
2019-01-08T19:34:28.141Z,53.81
2019-01-08T19:36:57.747Z,55.00
2019-01-08T19:39:27.293Z,54.77
2019-01-08T19:41:56.843Z,55.20
2019-01-08T19:44:26.303Z,54.96
2019-01-08T19:46:56.962Z,55.13
2019-01-08T19:49:26.581Z,55.00
2019-01-08T19:51:56.722Z,55.53
2019-01-08T19:54:26.501Z,55.13
2019-01-08T20:14:20.163Z,54.94
2019-01-08T20:16:49.733Z,55.36
2019-01-08T20:19:19.554Z,55.29
2019-01-08T20:21:48.998Z,54.73
2019-01-08T20:24:18.783Z,54.32
2019-01-08T20:26:48.252Z,54.11
2019-01-08T20:29:17.778Z,54.76
2019-01-08T20:31:47.456Z,54.40
2019-01-08T20:34:16.900Z,55.15
2019-01-08T20:36:46.579Z,54.56
2019-01-08T20:39:16.202Z,55.09
2019-01-08T20:41:45.865Z,55.61
2019-01-08T21:01:39.779Z,54.22
2019-01-08T21:04:09.566Z,53.60
2019-01-08T21:06:40.112Z,54.10
2019-01-08T21:26:32.412Z,54.00
2019-01-08T21:29:02.175Z,53.98
2019-01-08T21:31:31.734Z,54.00
2019-01-08T21:34:01.552Z,53.72
2019-01-08T21:36:31.139Z,54.14
2019-01-08T21:39:00.735Z,53.51
2019-01-08T21:41:30.373Z,53.97
2019-01-08T21:43:59.902Z,53.55
2019-01-08T22:21:13.780Z,56.64
2019-01-08T22:23:43.395Z,56.95
2019-01-08T22:26:12.969Z,56.99
2019-01-08T22:28:42.735Z,57.07
2019-01-08T22:31:12.393Z,57.33
2019-01-08T22:33:42.094Z,56.47
2019-01-08T22:36:11.654Z,57.35
2019-01-08T22:38:41.322Z,57.03
2019-01-08T22:41:11.097Z,57.30
2019-01-08T22:43:40.764Z,57.72
2019-01-08T22:46:10.316Z,57.57
2019-01-08T22:48:39.849Z,57.51
2019-01-08T23:08:31.568Z,57.37
2019-01-08T23:11:01.404Z,57.10
2019-01-08T23:13:31.322Z,57.45
2019-01-08T23:16:01.584Z,57.18
2019-01-08T23:21:05.783Z,56.77
2019-01-08T23:23:35.367Z,56.75
2019-01-08T23:26:05.051Z,56.94
2019-01-08T23:28:34.741Z,57.35
2019-01-08T23:31:04.318Z,57.26
2019-01-08T23:33:33.994Z,57.48
2019-01-08T23:36:03.774Z,57.90
2019-01-08T23:38:33.446Z,58.45
2019-01-08T23:41:03.146Z,58.09
